createdAt,value
2023-02-04T00:00:12.808Z,97878.44
2023-02-04T00:02:18.174Z,97873.81
2023-02-04T00:04:22.768Z,97876.84
2023-02-04T00:06:27.003Z,97888.88
2023-02-04T00:08:32.212Z,97886.47
2023-02-04T00:10:38.025Z,97889.41
2023-02-04T00:12:43.045Z,97899.63
2023-02-04T00:14:47.951Z,97896.34
2023-02-04T00:16:52.660Z,97889.16
2023-02-04T00:18:59.102Z,97888.47
2023-02-04T00:21:03.769Z,97894.84
2023-02-04T00:23:08.298Z,97897.69
2023-02-04T00:25:13.726Z,97905.63
2023-02-04T00:27:18.384Z,97911.31
2023-02-04T00:29:23.273Z,97915.16
2023-02-04T00:31:27.786Z,97918.97
2023-02-04T00:33:32.253Z,97917.56
2023-02-04T00:35:35.145Z,97910.66
2023-02-04T00:37:36.949Z,97901.69
2023-02-04T00:39:39.543Z,97921.47
2023-02-04T00:41:41.327Z,97912.69
2023-02-04T00:43:42.952Z,97918.34
2023-02-04T00:45:45.721Z,97913.97
2023-02-04T00:47:47.314Z,97913.28
2023-02-04T00:49:48.849Z,97916.66
2023-02-04T00:51:51.466Z,97921.34
2023-02-04T00:53:53.313Z,97921.09
2023-02-04T00:55:55.165Z,97929.03
2023-02-04T00:57:56.778Z,97919.16
2023-02-04T00:59:58.342Z,97923.41
2023-02-04T01:02:00.297Z,97918.56
2023-02-04T01:04:02.482Z,97920.91
2023-02-04T01:06:04.389Z,97930.06
2023-02-04T01:08:06.186Z,97929.44
2023-02-04T01:10:07.978Z,97927.22
2023-02-04T01:12:10.212Z,97945.66
2023-02-04T01:14:12.783Z,97953.22
2023-02-04T01:16:14.887Z,97949.75
2023-02-04T01:18:18.784Z,97950.13
2023-02-04T01:20:20.565Z,97962.56
2023-02-04T01:22:24.377Z,97961.69
2023-02-04T01:24:25.958Z,97965.91
2023-02-04T01:26:46.307Z,97963.25
2023-02-04T01:28:48.202Z,97974.75
2023-02-04T01:30:50.057Z,97967.31
2023-02-04T01:32:51.847Z,97973.72
2023-02-04T01:34:53.463Z,97976.28
2023-02-04T01:36:54.992Z,97982.25
2023-02-04T01:38:56.599Z,97990.13
2023-02-04T01:40:58.660Z,97983.63
2023-02-04T01:43:00.492Z,97991.59
2023-02-04T01:45:06.152Z,97987.19
2023-02-04T01:47:10.164Z,97992.88
2023-02-04T01:49:12.625Z,97989.06
2023-02-04T01:51:19.482Z,98000.13
2023-02-04T01:53:25.309Z,97990.97
2023-02-04T01:55:32.058Z,98001.31
2023-02-04T01:57:36.434Z,98006.84
2023-02-04T01:59:42.491Z,98001.66
2023-02-04T02:01:46.886Z,98000.59
2023-02-04T02:03:48.425Z,98004.34
2023-02-04T02:05:54.425Z,98004.84
2023-02-04T02:07:58.781Z,98004.63
2023-02-04T02:10:00.875Z,98005.44
2023-02-04T02:12:03.278Z,98009.47
2023-02-04T02:14:05.035Z,98013.75
2023-02-04T02:16:06.648Z,98008.28
2023-02-04T02:18:08.993Z,98007.59
2023-02-04T02:20:13.718Z,98020.44
2023-02-04T02:22:22.093Z,98014.41
2023-02-04T02:24:29.674Z,98015.94
2023-02-04T02:26:31.519Z,98020.41
2023-02-04T02:28:33.415Z,98027.94
2023-02-04T02:30:35.503Z,98025.91
2023-02-04T02:32:38.488Z,98025.38
2023-02-04T02:34:41.724Z,98028.25
2023-02-04T02:36:44.564Z,98026.09
2023-02-04T02:38:46.257Z,98022.56
2023-02-04T02:40:50.232Z,98025.97
2023-02-04T02:42:54.239Z,98021.69
2023-02-04T02:44:56.873Z,98025.09
2023-02-04T02:46:59.202Z,98036.84
2023-02-04T02:49:00.815Z,98037.97
2023-02-04T02:51:02.913Z,98047.38
2023-02-04T02:53:05.696Z,98044.19
2023-02-04T02:55:12.734Z,98046.69
2023-02-04T02:57:17.653Z,98042.38
2023-02-04T02:59:20.251Z,98058.78
2023-02-04T03:01:22.145Z,98048.63
2023-02-04T03:03:27.976Z,98050.09
2023-02-04T03:05:34.073Z,98058.84
2023-02-04T03:07:36.581Z,98051.81
2023-02-04T03:09:38.641Z,98058.59
2023-02-04T03:11:41.292Z,98059.34
2023-02-04T03:13:43.137Z,98068.34
2023-02-04T03:15:47.524Z,98068.56
2023-02-04T03:17:49.586Z,98057.00
2023-02-04T03:19:51.375Z,98065.28
2023-02-04T03:21:54.708Z,98062.00
2023-02-04T03:23:57.672Z,98068.63
2023-02-04T03:26:00.146Z,98076.66
2023-02-04T03:28:02.177Z,98077.72
2023-02-04T03:30:04.155Z,98086.50
2023-02-04T03:32:06.451Z,98084.75
2023-02-04T03:34:08.450Z,98087.16
2023-02-04T03:36:10.209Z,98079.34
2023-02-04T03:38:12.000Z,98091.72
2023-02-04T03:40:14.696Z,98085.75
2023-02-04T03:42:16.412Z,98086.84
2023-02-04T03:44:18.994Z,98096.41
2023-02-04T03:46:22.863Z,98096.63
2023-02-04T03:48:24.818Z,98096.78
2023-02-04T03:50:26.475Z,98108.78
2023-02-04T03:52:28.235Z,98104.09
2023-02-04T03:54:30.018Z,98109.06
2023-02-04T03:56:43.593Z,98118.53
2023-02-04T03:58:45.191Z,98115.72
2023-02-04T04:00:46.865Z,98121.47
2023-02-04T04:02:48.655Z,98124.59
2023-02-04T04:04:50.357Z,98131.06
2023-02-04T04:06:52.186Z,98133.78
2023-02-04T04:08:53.746Z,98133.16
2023-02-04T04:10:55.377Z,98143.47
2023-02-04T04:12:57.523Z,98140.91
2023-02-04T04:14:59.340Z,98134.91
2023-02-04T04:17:00.967Z,98141.41
2023-02-04T04:19:02.933Z,98138.03
2023-02-04T04:21:04.983Z,98141.16
2023-02-04T04:23:06.537Z,98142.84
2023-02-04T04:25:08.833Z,98139.03
2023-02-04T04:27:10.840Z,98146.66
2023-02-04T04:29:13.099Z,98146.97
2023-02-04T04:31:15.140Z,98149.25
2023-02-04T04:33:16.840Z,98152.91
2023-02-04T04:35:18.394Z,98148.88
2023-02-04T04:37:20.034Z,98160.69
2023-02-04T04:39:22.041Z,98165.72
2023-02-04T04:41:23.929Z,98155.94
2023-02-04T04:43:25.526Z,98151.34
2023-02-04T04:45:27.076Z,98162.38
2023-02-04T04:47:28.830Z,98164.72
2023-02-04T04:49:30.617Z,98165.38
2023-02-04T04:51:34.317Z,98163.59
2023-02-04T04:53:38.064Z,98171.16
2023-02-04T04:55:42.971Z,98168.91
2023-02-04T04:57:47.829Z,98177.31
2023-02-04T04:59:52.902Z,98175.31
2023-02-04T05:01:58.250Z,98171.84
2023-02-04T05:04:06.436Z,98170.72
2023-02-04T05:06:30.138Z,98171.97
2023-02-04T05:08:37.164Z,98188.69
2023-02-04T05:10:49.104Z,98172.66
2023-02-04T05:12:57.412Z,98188.91
2023-02-04T05:15:02.816Z,98181.13
2023-02-04T05:17:08.152Z,98188.59
2023-02-04T05:19:12.933Z,98199.38
2023-02-04T05:21:17.979Z,98200.50
2023-02-04T05:23:23.404Z,98201.16
2023-02-04T05:25:30.612Z,98203.38
2023-02-04T05:27:41.325Z,98204.47
2023-02-04T05:29:53.339Z,98191.13
2023-02-04T05:32:01.200Z,98205.13
2023-02-04T05:34:06.637Z,98211.38
2023-02-04T05:36:11.414Z,98215.03
2023-02-04T05:38:18.881Z,98224.50
2023-02-04T05:40:25.300Z,98218.91
2023-02-04T05:42:29.595Z,98222.03
2023-02-04T05:44:34.325Z,98221.50
2023-02-04T05:46:40.646Z,98218.91
2023-02-04T05:48:45.305Z,98232.19
2023-02-04T05:50:49.508Z,98227.53
2023-02-04T05:52:53.725Z,98220.63
2023-02-04T05:55:02.209Z,98232.97
2023-02-04T05:57:09.265Z,98235.25
2023-02-04T05:59:14.105Z,98228.47
2023-02-04T06:01:19.980Z,98236.81
2023-02-04T06:03:24.460Z,98233.88
2023-02-04T06:05:29.802Z,98243.84
2023-02-04T06:07:34.096Z,98243.25
2023-02-04T06:09:38.364Z,98234.13
2023-02-04T06:11:43.161Z,98246.91
2023-02-04T06:13:47.730Z,98248.78
2023-02-04T06:15:52.272Z,98254.66
2023-02-04T06:17:57.214Z,98244.69
2023-02-04T06:20:01.697Z,98237.81
2023-02-04T06:22:07.398Z,98243.16
2023-02-04T06:24:11.974Z,98245.28
2023-02-04T06:26:16.603Z,98231.38
2023-02-04T06:28:20.958Z,98234.44
2023-02-04T06:30:25.448Z,98244.81
2023-02-04T06:32:29.755Z,98251.31
2023-02-04T06:34:34.178Z,98259.50
2023-02-04T06:36:38.706Z,98268.25
2023-02-04T06:38:43.242Z,98269.06
2023-02-04T06:40:54.778Z,98263.97
2023-02-04T06:42:59.499Z,98259.75
2023-02-04T06:45:04.561Z,98263.19
2023-02-04T06:47:09.158Z,98264.50
2023-02-04T06:49:14.864Z,98272.88
2023-02-04T06:51:19.316Z,98267.88
2023-02-04T06:53:24.156Z,98267.44
2023-02-04T06:55:29.105Z,98271.09
2023-02-04T06:57:33.634Z,98289.38
2023-02-04T06:59:40.845Z,98293.28
2023-02-04T07:01:43.306Z,98296.03
2023-02-04T07:03:44.814Z,98296.69
2023-02-04T07:05:46.344Z,98302.31
2023-02-04T07:07:48.006Z,98312.44
2023-02-04T07:09:49.615Z,98324.03
2023-02-04T07:11:51.642Z,98327.63
2023-02-04T07:13:53.187Z,98325.28
2023-02-04T07:15:54.967Z,98333.75
2023-02-04T07:17:56.676Z,98341.97
2023-02-04T07:19:58.207Z,98330.66
2023-02-04T07:21:59.796Z,98335.03
2023-02-04T07:24:01.898Z,98334.38
2023-02-04T07:26:03.684Z,98347.06
2023-02-04T07:28:06.203Z,98341.81
2023-02-04T07:30:10.291Z,98337.81
2023-02-04T07:32:11.908Z,98338.72
2023-02-04T07:34:14.429Z,98347.66
2023-02-04T07:36:16.006Z,98349.28
2023-02-04T07:38:17.907Z,98349.84
2023-02-04T07:40:19.726Z,98357.66
2023-02-04T07:42:21.328Z,98359.38
2023-02-04T07:44:29.099Z,98360.69
2023-02-04T07:46:30.767Z,98365.19
2023-02-04T07:48:32.305Z,98368.19
2023-02-04T07:50:34.426Z,98372.09
2023-02-04T07:52:36.207Z,98380.81
2023-02-04T07:54:37.713Z,98377.44
2023-02-04T07:56:39.345Z,98386.25
2023-02-04T07:58:40.889Z,98381.81
2023-02-04T08:00:42.430Z,98378.78
2023-02-04T08:02:44.099Z,98375.97
2023-02-04T08:04:45.700Z,98385.16
2023-02-04T08:06:47.304Z,98386.50
2023-02-04T08:08:48.801Z,98389.63
2023-02-04T08:10:50.450Z,98388.09
2023-02-04T08:12:51.984Z,98400.59
2023-02-04T08:14:54.076Z,98404.16
2023-02-04T08:16:55.886Z,98406.78
2023-02-04T08:18:57.815Z,98394.91
2023-02-04T08:21:01.409Z,98396.06
2023-02-04T08:23:03.009Z,98403.59
2023-02-04T08:25:05.840Z,98406.03
2023-02-04T08:27:07.435Z,98406.19
2023-02-04T08:29:10.045Z,98409.34
2023-02-04T08:31:12.257Z,98409.47
2023-02-04T08:33:14.052Z,98412.84
2023-02-04T08:35:15.973Z,98418.41
2023-02-04T08:37:17.740Z,98423.56
2023-02-04T08:39:19.301Z,98429.88
2023-02-04T08:41:21.070Z,98439.53
2023-02-04T08:43:22.657Z,98446.53
2023-02-04T08:45:24.218Z,98451.22
2023-02-04T08:47:25.892Z,98455.66
2023-02-04T08:49:27.497Z,98461.28
2023-02-04T08:51:29.770Z,98462.28
2023-02-04T08:53:31.419Z,98462.66
2023-02-04T08:55:33.117Z,98466.22
2023-02-04T08:57:34.989Z,98470.78
2023-02-04T08:59:36.824Z,98463.00
2023-02-04T09:01:38.375Z,98468.06
2023-02-04T09:03:40.221Z,98475.72
2023-02-04T09:05:42.095Z,98470.91
2023-02-04T09:07:43.689Z,98479.72
2023-02-04T09:09:45.213Z,98486.63
2023-02-04T09:11:47.472Z,98497.50
2023-02-04T09:13:49.260Z,98494.06
2023-02-04T09:15:54.053Z,98500.66
2023-02-04T09:18:04.823Z,98487.63
2023-02-04T09:20:07.202Z,98504.06
2023-02-04T09:22:08.743Z,98499.69
2023-02-04T09:24:10.798Z,98497.50
2023-02-04T09:26:13.449Z,98497.44
2023-02-04T09:28:17.338Z,98489.00
2023-02-04T09:30:19.036Z,98497.28
2023-02-04T09:32:22.092Z,98494.06
2023-02-04T09:34:23.895Z,98493.28
2023-02-04T09:36:28.455Z,98491.13
2023-02-04T09:38:30.296Z,98499.16
2023-02-04T09:40:36.612Z,98499.94
2023-02-04T09:42:38.592Z,98508.53
2023-02-04T09:44:40.485Z,98501.94
2023-02-04T09:46:48.099Z,98504.84
2023-02-04T09:48:50.495Z,98510.13
2023-02-04T09:50:57.939Z,98514.91
2023-02-04T09:53:03.444Z,98519.72
2023-02-04T09:55:13.339Z,98517.41
2023-02-04T09:57:18.218Z,98516.41
2023-02-04T09:59:22.450Z,98517.88
2023-02-04T10:01:24.294Z,98524.66
2023-02-04T10:03:26.260Z,98521.88
2023-02-04T10:05:33.816Z,98533.50
2023-02-04T10:07:35.585Z,98536.19
2023-02-04T10:09:37.184Z,98544.56
2023-02-04T10:11:41.883Z,98549.16
2023-02-04T10:13:50.300Z,98541.00
2023-02-04T10:15:53.113Z,98543.00
2023-02-04T10:18:01.557Z,98539.38
2023-02-04T10:20:03.810Z,98533.53
2023-02-04T10:22:15.577Z,98542.13
2023-02-04T10:24:19.990Z,98544.44
2023-02-04T10:26:22.842Z,98538.53
2023-02-04T10:28:35.057Z,98544.22
2023-02-04T10:30:42.733Z,98554.38
2023-02-04T10:32:45.550Z,98557.75
2023-02-04T10:34:47.080Z,98557.53
2023-02-04T10:36:57.659Z,98555.22
2023-02-04T10:39:11.178Z,98561.88
2023-02-04T10:41:14.319Z,98560.56
2023-02-04T10:43:23.256Z,98562.44
2023-02-04T10:45:27.063Z,98558.53
2023-02-04T10:47:31.353Z,98562.66
2023-02-04T10:49:33.546Z,98561.56
2023-02-04T10:51:35.306Z,98568.47
2023-02-04T10:53:56.388Z,98567.09
2023-02-04T10:55:58.004Z,98572.75
2023-02-04T10:58:03.253Z,98569.63
2023-02-04T11:00:14.415Z,98568.91
2023-02-04T11:02:39.568Z,98566.81
2023-02-04T11:04:41.244Z,98569.25
2023-02-04T11:06:42.931Z,98576.06
2023-02-04T11:08:44.811Z,98573.75
2023-02-04T11:10:46.795Z,98576.75
2023-02-04T11:12:54.482Z,98565.25
2023-02-04T11:14:57.700Z,98569.94
2023-02-04T11:17:02.204Z,98571.38
2023-02-04T11:19:12.394Z,98572.06
2023-02-04T11:21:22.691Z,98564.00
2023-02-04T11:23:27.183Z,98564.97
2023-02-04T11:25:39.505Z,98575.06
2023-02-04T11:27:41.338Z,98572.63
2023-02-04T11:29:43.097Z,98572.28
2023-02-04T11:31:50.706Z,98573.66
2023-02-04T11:34:16.075Z,98572.59
2023-02-04T11:36:17.980Z,98572.50
2023-02-04T11:38:27.324Z,98577.81
2023-02-04T11:40:36.692Z,98585.72
2023-02-04T11:42:42.623Z,98595.41
2023-02-04T11:44:49.914Z,98586.97
2023-02-04T11:46:55.380Z,98586.31
2023-02-04T11:48:59.187Z,98585.00
2023-02-04T11:51:03.399Z,98586.06
2023-02-04T11:53:05.569Z,98592.19
2023-02-04T11:55:10.657Z,98594.00
2023-02-04T11:57:12.460Z,98595.66
2023-02-04T11:59:14.833Z,98585.94
2023-02-04T12:01:21.529Z,98585.75
2023-02-04T12:03:26.008Z,98582.53
2023-02-04T12:05:38.496Z,98584.66
2023-02-04T12:07:40.433Z,98582.38
2023-02-04T12:09:49.425Z,98591.72
2023-02-04T12:11:56.554Z,98589.63
2023-02-04T12:14:06.876Z,98582.63
2023-02-04T12:16:09.477Z,98586.03
2023-02-04T12:18:12.846Z,98588.09
2023-02-04T12:20:14.564Z,98590.88
2023-02-04T12:22:16.036Z,98592.09
2023-02-04T12:24:17.662Z,98591.19
2023-02-04T12:26:19.353Z,98602.81
2023-02-04T12:28:21.953Z,98598.09
2023-02-04T12:30:25.451Z,98597.13
2023-02-04T12:32:27.208Z,98579.06
2023-02-04T12:34:28.825Z,98589.94
2023-02-04T12:36:30.467Z,98588.25
2023-02-04T12:38:32.746Z,98588.28
2023-02-04T12:40:34.955Z,98581.53
2023-02-04T12:42:36.652Z,98588.75
2023-02-04T12:44:38.251Z,98587.34
2023-02-04T12:46:40.316Z,98593.41
2023-02-04T12:48:41.977Z,98597.75
2023-02-04T12:50:43.603Z,98594.00
2023-02-04T12:52:45.096Z,98587.34
2023-02-04T12:54:46.654Z,98592.69
2023-02-04T12:56:49.480Z,98600.41
2023-02-04T12:58:51.723Z,98596.09
2023-02-04T13:00:53.312Z,98582.88
2023-02-04T13:02:55.290Z,98581.84
2023-02-04T13:04:57.125Z,98587.75
2023-02-04T13:06:58.681Z,98593.72
2023-02-04T13:09:00.207Z,98604.47
2023-02-04T13:11:02.573Z,98605.97
2023-02-04T13:13:04.738Z,98610.25
2023-02-04T13:15:07.601Z,98609.94
2023-02-04T13:17:09.562Z,98608.69
2023-02-04T13:19:11.265Z,98602.06
2023-02-04T13:21:13.067Z,98593.34
2023-02-04T13:23:14.994Z,98598.69
2023-02-04T13:25:16.941Z,98588.22
2023-02-04T13:27:19.716Z,98594.63
2023-02-04T13:29:22.064Z,98593.41
2023-02-04T13:31:23.813Z,98593.88
2023-02-04T13:33:25.478Z,98595.63
2023-02-04T13:35:27.088Z,98595.44
2023-02-04T13:37:28.645Z,98600.00
2023-02-04T13:39:30.265Z,98594.47
2023-02-04T13:41:32.229Z,98596.28
2023-02-04T13:43:34.180Z,98591.19
2023-02-04T13:45:36.234Z,98594.59
2023-02-04T13:47:38.433Z,98598.06
2023-02-04T13:49:40.092Z,98592.63
2023-02-04T13:51:41.689Z,98601.97
2023-02-04T13:53:43.531Z,98603.13
2023-02-04T13:55:45.211Z,98595.00
2023-02-04T13:57:46.774Z,98596.56
2023-02-04T13:59:48.420Z,98596.75
2023-02-04T14:01:50.261Z,98597.41
2023-02-04T14:03:51.912Z,98600.09
2023-02-04T14:05:53.980Z,98604.59
2023-02-04T14:07:55.632Z,98604.56
2023-02-04T14:09:57.174Z,98598.63
2023-02-04T14:11:58.697Z,98599.97
2023-02-04T14:14:00.286Z,98596.63
2023-02-04T14:16:02.052Z,98600.38
2023-02-04T14:18:04.910Z,98614.69
2023-02-04T14:20:06.803Z,98616.19
2023-02-04T14:22:08.428Z,98610.31
2023-02-04T14:24:10.047Z,98611.19
2023-02-04T14:26:11.979Z,98618.00
2023-02-04T14:28:13.634Z,98622.13
2023-02-04T14:30:33.941Z,98623.50
2023-02-04T14:32:35.599Z,98612.00
2023-02-04T14:34:37.375Z,98616.22
2023-02-04T14:36:39.518Z,98614.06
2023-02-04T14:38:41.064Z,98616.91
2023-02-04T14:40:45.512Z,98616.69
2023-02-04T14:42:47.963Z,98619.84
2023-02-04T14:44:49.562Z,98620.47
2023-02-04T14:46:51.422Z,98625.19
2023-02-04T14:48:54.449Z,98626.16
2023-02-04T14:50:56.279Z,98621.47
2023-02-04T14:52:58.201Z,98617.69
2023-02-04T14:54:59.801Z,98618.03
2023-02-04T14:57:01.365Z,98617.22
2023-02-04T14:59:03.116Z,98614.59
2023-02-04T15:01:05.101Z,98626.66
2023-02-04T15:03:06.624Z,98623.16
2023-02-04T15:05:08.770Z,98630.19
2023-02-04T15:07:11.203Z,98625.91
2023-02-04T15:09:13.001Z,98623.84
2023-02-04T15:11:14.478Z,98620.44
2023-02-04T15:13:16.592Z,98621.94
2023-02-04T15:15:18.390Z,98624.16
2023-02-04T15:17:19.961Z,98615.88
2023-02-04T15:19:23.520Z,98610.91
2023-02-04T15:21:25.019Z,98621.78
2023-02-04T15:23:26.553Z,98616.66
2023-02-04T15:25:28.324Z,98617.59
2023-02-04T15:27:30.590Z,98621.16
2023-02-04T15:29:32.624Z,98621.69
2023-02-04T15:31:34.433Z,98611.94
2023-02-04T15:33:36.125Z,98620.53
2023-02-04T15:35:38.269Z,98616.44
2023-02-04T15:37:39.880Z,98617.19
2023-02-04T15:39:43.503Z,98624.72
2023-02-04T15:41:45.040Z,98636.09
2023-02-04T15:43:48.715Z,98634.50
2023-02-04T15:45:50.432Z,98633.97
2023-02-04T15:47:52.116Z,98626.38
2023-02-04T15:49:53.883Z,98625.56
2023-02-04T15:51:55.450Z,98621.78
2023-02-04T15:53:57.039Z,98619.88
2023-02-04T15:55:58.716Z,98623.47
2023-02-04T15:58:00.533Z,98625.50
2023-02-04T16:00:03.520Z,98633.34
2023-02-04T16:02:06.808Z,98630.00
2023-02-04T16:04:09.652Z,98639.47
2023-02-04T16:06:11.407Z,98637.38
2023-02-04T16:08:13.122Z,98647.41
2023-02-04T16:10:18.012Z,98641.00
2023-02-04T16:12:19.706Z,98645.19
2023-02-04T16:14:21.244Z,98647.25
2023-02-04T16:16:23.308Z,98646.22
2023-02-04T16:18:25.891Z,98647.69
2023-02-04T16:20:27.477Z,98657.94
2023-02-04T16:22:30.762Z,98654.94
2023-02-04T16:24:32.966Z,98658.78
2023-02-04T16:26:35.158Z,98661.47
2023-02-04T16:28:36.859Z,98675.84
2023-02-04T16:30:39.514Z,98667.03
2023-02-04T16:32:41.699Z,98672.50
2023-02-04T16:34:43.202Z,98681.66
2023-02-04T16:36:44.934Z,98684.25
2023-02-04T16:38:47.615Z,98675.88
2023-02-04T16:40:49.292Z,98681.72
2023-02-04T16:42:51.701Z,98677.69
2023-02-04T16:44:53.243Z,98679.50
2023-02-04T16:46:55.079Z,98678.91
2023-02-04T16:48:57.432Z,98688.69
2023-02-04T16:50:59.113Z,98685.69
2023-02-04T16:53:00.945Z,98689.00
2023-02-04T16:55:02.561Z,98681.19
2023-02-04T16:57:04.192Z,98684.97
2023-02-04T16:59:05.990Z,98687.78
2023-02-04T17:01:07.750Z,98686.22
2023-02-04T17:03:10.443Z,98684.78
2023-02-04T17:05:12.277Z,98684.97
2023-02-04T17:07:13.836Z,98684.34
2023-02-04T17:09:15.536Z,98682.47
2023-02-04T17:11:29.182Z,98680.59
2023-02-04T17:13:31.341Z,98684.50
2023-02-04T17:15:34.104Z,98687.00
2023-02-04T17:17:35.856Z,98690.78
2023-02-04T17:19:37.361Z,98689.22
2023-02-04T17:21:39.801Z,98690.63
2023-02-04T17:23:44.959Z,98686.81
2023-02-04T17:25:47.838Z,98697.59
2023-02-04T17:27:51.837Z,98698.25
2023-02-04T17:29:53.358Z,98699.63
2023-02-04T17:31:56.591Z,98696.81
2023-02-04T17:33:58.612Z,98697.44
2023-02-04T17:36:03.623Z,98695.34
2023-02-04T17:38:05.152Z,98701.53
2023-02-04T17:40:07.294Z,98692.25
2023-02-04T17:42:09.055Z,98696.03
2023-02-04T17:44:16.711Z,98699.00
2023-02-04T17:46:18.336Z,98702.19
2023-02-04T17:48:20.072Z,98705.38
2023-02-04T17:50:21.842Z,98696.75
2023-02-04T17:52:23.514Z,98703.78
2023-02-04T17:54:24.983Z,98712.47
2023-02-04T17:56:27.039Z,98705.03
2023-02-04T17:58:31.038Z,98708.47
2023-02-04T18:00:33.619Z,98721.28
2023-02-04T18:02:35.385Z,98715.34
2023-02-04T18:04:37.145Z,98712.06
2023-02-04T18:06:39.078Z,98719.28
2023-02-04T18:08:40.687Z,98716.69
2023-02-04T18:10:49.832Z,98715.47
2023-02-04T18:12:51.362Z,98713.81
2023-02-04T18:14:52.885Z,98714.84
2023-02-04T18:16:57.781Z,98719.34
2023-02-04T18:19:15.815Z,98724.00
2023-02-04T18:21:20.331Z,98727.94
2023-02-04T18:23:21.846Z,98721.78
2023-02-04T18:25:28.545Z,98716.78
2023-02-04T18:27:31.809Z,98719.34
2023-02-04T18:29:35.906Z,98713.00
2023-02-04T18:31:52.655Z,98714.25
2023-02-04T18:33:55.018Z,98711.75
2023-02-04T18:36:01.478Z,98708.69
2023-02-04T18:38:17.446Z,98707.78
2023-02-04T18:40:27.984Z,98707.94
2023-02-04T18:42:29.571Z,98709.31
2023-02-04T18:44:38.125Z,98708.91
2023-02-04T18:46:44.252Z,98713.53
2023-02-04T18:48:55.662Z,98715.75
2023-02-04T18:50:59.125Z,98710.63
2023-02-04T18:53:22.150Z,98709.88
2023-02-04T18:55:37.591Z,98715.06
2023-02-04T18:57:40.318Z,98703.69
2023-02-04T18:59:42.447Z,98708.13
2023-02-04T19:01:46.606Z,98708.16
2023-02-04T19:03:50.471Z,98709.84
2023-02-04T19:05:53.766Z,98704.63
2023-02-04T19:08:04.821Z,98709.88
2023-02-04T19:10:32.680Z,98706.78
2023-02-04T19:12:54.026Z,98703.44
2023-02-04T19:15:36.300Z,98704.91
2023-02-04T19:18:14.728Z,98702.06
2023-02-04T19:20:38.711Z,98710.94
2023-02-04T19:23:00.657Z,98706.94
2023-02-04T19:25:22.504Z,98713.34
2023-02-04T19:27:50.093Z,98711.41
2023-02-04T19:30:27.340Z,98711.97
2023-02-04T19:32:55.663Z,98716.09
2023-02-04T19:35:23.148Z,98717.66
2023-02-04T19:37:53.275Z,98719.94
2023-02-04T19:40:37.291Z,98714.16
2023-02-04T19:43:16.200Z,98718.09
2023-02-04T19:45:39.351Z,98727.16
2023-02-04T19:48:01.769Z,98722.13
2023-02-04T19:50:34.615Z,98732.66
2023-02-04T19:53:02.480Z,98738.59
2023-02-04T19:55:34.245Z,98726.94
2023-02-04T19:58:22.783Z,98728.66
2023-02-04T20:00:56.685Z,98728.44
2023-02-04T20:03:33.164Z,98731.00
2023-02-04T20:09:08.711Z,98731.72
2023-02-04T20:11:30.979Z,98736.91
2023-02-04T20:14:18.523Z,98747.06
2023-02-04T20:16:47.519Z,98752.47
2023-02-04T20:19:24.104Z,98753.16
2023-02-04T20:22:00.259Z,98745.59
2023-02-04T20:24:22.297Z,98744.09
2023-02-04T20:26:45.282Z,98744.28
2023-02-04T20:29:21.528Z,98743.00
2023-02-04T20:31:43.662Z,98742.34
2023-02-04T20:34:17.454Z,98749.13
2023-02-04T20:36:42.676Z,98754.53
2023-02-04T20:39:21.481Z,98759.16
2023-02-04T20:41:43.678Z,98763.00
2023-02-04T20:44:15.105Z,98758.75
2023-02-04T20:46:37.810Z,98754.50
2023-02-04T20:48:59.963Z,98767.59
2023-02-04T20:51:24.574Z,98762.69
2023-02-04T20:53:52.403Z,98769.69
2023-02-04T20:56:35.466Z,98775.00
2023-02-04T20:59:17.690Z,98770.78
2023-02-04T21:01:46.509Z,98763.50
2023-02-04T21:04:37.777Z,98762.50
2023-02-04T21:07:03.796Z,98764.19
2023-02-04T21:09:28.358Z,98762.22
2023-02-04T21:15:11.265Z,98772.47
2023-02-04T21:17:33.482Z,98770.84
2023-02-04T21:19:55.383Z,98766.34
2023-02-04T21:22:17.269Z,98772.47
2023-02-04T21:25:29.019Z,98772.97
2023-02-04T21:27:43.787Z,98770.88
2023-02-04T21:29:45.546Z,98773.91
2023-02-04T21:31:48.304Z,98769.69
2023-02-04T21:33:50.286Z,98778.84
2023-02-04T21:35:51.822Z,98776.16
2023-02-04T21:37:57.508Z,98777.25
2023-02-04T21:39:59.199Z,98769.56
2023-02-04T21:42:13.416Z,98770.16
2023-02-04T21:44:17.643Z,98764.94
2023-02-04T21:46:20.461Z,98766.41
2023-02-04T21:48:23.220Z,98760.88
2023-02-04T21:50:25.878Z,98760.59
2023-02-04T21:55:28.918Z,98751.97
2023-02-04T21:57:32.065Z,98750.41
2023-02-04T21:59:33.869Z,98748.94
2023-02-04T22:01:35.647Z,98749.16
2023-02-04T22:03:37.706Z,98740.56
2023-02-04T22:05:39.605Z,98743.06
2023-02-04T22:07:41.591Z,98738.25
2023-02-04T22:09:43.914Z,98739.97
2023-02-04T22:11:48.183Z,98744.00
2023-02-04T22:14:08.102Z,98739.16
2023-02-04T22:16:09.718Z,98743.34
2023-02-04T22:18:12.104Z,98742.16
2023-02-04T22:20:15.607Z,98747.47
2023-02-04T22:22:17.890Z,98750.81
2023-02-04T22:24:19.589Z,98748.22
2023-02-04T22:26:21.252Z,98754.56
2023-02-04T22:28:22.971Z,98742.69
2023-02-04T22:30:25.725Z,98741.84
2023-02-04T22:32:27.641Z,98745.75
2023-02-04T22:34:31.323Z,98743.91
2023-02-04T22:36:32.846Z,98750.44
2023-02-04T22:38:34.455Z,98741.78
2023-02-04T22:40:36.056Z,98740.72
2023-02-04T22:42:37.981Z,98735.19
2023-02-04T22:44:39.556Z,98731.06
2023-02-04T22:46:41.270Z,98726.06
2023-02-04T22:48:42.843Z,98733.13
2023-02-04T22:50:44.438Z,98735.66
2023-02-04T22:52:46.026Z,98737.00
2023-02-04T22:54:47.588Z,98739.56
2023-02-04T22:56:49.720Z,98730.47
2023-02-04T22:58:52.911Z,98734.22
2023-02-04T23:00:54.677Z,98743.19
2023-02-04T23:02:56.218Z,98739.41
2023-02-04T23:04:57.756Z,98731.34
2023-02-04T23:07:00.730Z,98737.47
2023-02-04T23:09:02.406Z,98745.53
2023-02-04T23:11:04.087Z,98737.38
2023-02-04T23:13:05.824Z,98744.03
2023-02-04T23:15:07.820Z,98749.91
2023-02-04T23:17:10.179Z,98753.59
2023-02-04T23:19:12.021Z,98750.19
2023-02-04T23:21:14.261Z,98749.09
2023-02-04T23:23:17.516Z,98748.78
2023-02-04T23:25:20.711Z,98746.94
2023-02-04T23:27:22.232Z,98743.81
2023-02-04T23:29:23.866Z,98743.38
2023-02-04T23:31:25.784Z,98751.69
2023-02-04T23:33:27.326Z,98748.84
2023-02-04T23:35:29.148Z,98754.03
2023-02-04T23:37:32.327Z,98750.47
2023-02-04T23:39:33.981Z,98746.84
2023-02-04T23:41:35.504Z,98750.69
2023-02-04T23:43:37.355Z,98753.16
2023-02-04T23:45:38.978Z,98747.69
2023-02-04T23:47:40.681Z,98747.69
2023-02-04T23:49:42.597Z,98750.81
2023-02-04T23:51:44.216Z,98748.69
2023-02-04T23:53:45.727Z,98747.94
2023-02-04T23:55:48.053Z,98746.84
2023-02-04T23:57:49.708Z,98749.38
2023-02-04T23:59:52.935Z,98744.06
